createdAt,value
2017-10-13T00:04:52.417Z,6.97
2017-10-13T00:07:18.668Z,8.60
2017-10-13T00:09:44.867Z,6.57
2017-10-13T00:12:11.108Z,7.50
2017-10-13T00:14:37.266Z,8.00
2017-10-13T00:17:03.389Z,13.20
2017-10-13T00:19:29.647Z,13.43
2017-10-13T00:21:55.879Z,7.60
2017-10-13T00:24:22.064Z,7.90
2017-10-13T00:26:48.249Z,7.10
2017-10-13T00:29:15.197Z,9.03
2017-10-13T00:31:42.165Z,7.53
2017-10-13T00:34:08.492Z,7.40
2017-10-13T00:36:34.704Z,7.07
2017-10-13T00:39:01.720Z,8.20
2017-10-13T00:41:27.987Z,10.17
2017-10-13T00:43:54.188Z,5.60
2017-10-13T00:46:20.426Z,5.50
2017-10-13T00:48:47.398Z,11.33
2017-10-13T00:51:13.762Z,12.03
2017-10-13T00:53:40.023Z,13.07
2017-10-13T00:56:06.240Z,11.73
2017-10-13T00:58:32.439Z,7.50
2017-10-13T01:00:58.690Z,6.00
2017-10-13T01:03:24.929Z,4.63
2017-10-13T01:05:51.121Z,4.37
2017-10-13T01:08:17.361Z,4.03
2017-10-13T01:10:43.576Z,7.60
2017-10-13T01:13:09.809Z,4.57
2017-10-13T01:15:36.058Z,6.63
2017-10-13T01:18:02.377Z,4.80
2017-10-13T01:20:28.594Z,4.47
2017-10-13T01:22:54.857Z,12.10
2017-10-13T01:25:21.100Z,8.07
2017-10-13T01:27:48.112Z,5.73
2017-10-13T01:30:14.339Z,4.73
2017-10-13T01:32:40.627Z,4.27
2017-10-13T01:35:06.936Z,5.67
2017-10-13T01:37:33.975Z,5.83
2017-10-13T01:40:00.273Z,8.13
2017-10-13T01:42:26.508Z,9.07
2017-10-13T01:44:52.745Z,5.33
2017-10-13T01:47:19.049Z,5.43
2017-10-13T01:49:45.263Z,4.87
2017-10-13T01:52:11.515Z,10.77
2017-10-13T01:54:37.828Z,5.17
2017-10-13T01:57:04.076Z,6.63
2017-10-13T01:59:30.377Z,5.30
2017-10-13T02:01:56.696Z,14.77
2017-10-13T02:04:22.941Z,7.03
2017-10-13T02:06:49.183Z,26.30
2017-10-13T02:09:15.401Z,7.40
2017-10-13T02:11:41.561Z,6.70
2017-10-13T02:14:07.792Z,8.07
2017-10-13T02:16:34.031Z,10.00
2017-10-13T02:19:00.253Z,11.43
2017-10-13T02:21:27.212Z,8.73
2017-10-13T02:23:53.471Z,10.07
2017-10-13T02:26:19.700Z,8.03
2017-10-13T02:28:46.692Z,8.03
2017-10-13T02:31:12.922Z,10.97
2017-10-13T02:33:39.109Z,8.40
2017-10-13T02:36:05.342Z,11.67
2017-10-13T02:38:32.294Z,9.80
2017-10-13T02:40:58.508Z,9.43
2017-10-13T02:43:24.760Z,10.30
2017-10-13T02:45:51.012Z,9.47
2017-10-13T02:48:17.225Z,7.83
2017-10-13T02:50:43.475Z,12.87
2017-10-13T02:53:10.526Z,8.10
2017-10-13T02:55:36.800Z,11.60
2017-10-13T02:58:03.045Z,8.60
2017-10-13T03:00:29.257Z,6.70
2017-10-13T03:02:55.419Z,11.00
2017-10-13T03:05:21.601Z,9.63
2017-10-13T03:07:48.584Z,10.20
2017-10-13T03:10:14.833Z,9.03
2017-10-13T03:12:41.043Z,12.40
2017-10-13T03:15:07.339Z,5.80
2017-10-13T03:17:33.537Z,11.27
2017-10-13T03:19:59.693Z,8.93
2017-10-13T03:22:26.695Z,9.50
2017-10-13T03:24:52.911Z,9.43
2017-10-13T03:27:19.085Z,9.93
2017-10-13T03:29:46.421Z,12.57
2017-10-13T03:32:14.218Z,9.97
2017-10-13T03:34:40.388Z,9.27
2017-10-13T03:37:06.650Z,8.90
2017-10-13T03:39:33.632Z,10.80
2017-10-13T03:41:59.897Z,8.00
2017-10-13T03:44:26.191Z,10.43
2017-10-13T03:46:52.412Z,7.43
2017-10-13T03:49:18.647Z,8.00
2017-10-13T03:51:44.906Z,10.63
2017-10-13T03:54:11.198Z,9.90
2017-10-13T03:56:37.388Z,9.00
2017-10-13T03:59:03.672Z,6.77
2017-10-13T04:01:29.897Z,8.20
2017-10-13T04:03:56.117Z,8.43
2017-10-13T04:06:22.475Z,9.47
2017-10-13T04:08:48.676Z,11.90
2017-10-13T04:11:14.886Z,11.17
2017-10-13T04:13:41.889Z,10.10
2017-10-13T04:16:08.036Z,8.30
2017-10-13T04:18:34.228Z,10.93
2017-10-13T04:21:00.457Z,11.17
2017-10-13T04:23:26.683Z,10.67
2017-10-13T04:25:52.825Z,10.63
2017-10-13T04:28:19.460Z,16.23
2017-10-13T04:30:45.637Z,9.03
2017-10-13T04:33:12.543Z,12.27
2017-10-13T04:35:38.771Z,7.23
2017-10-13T04:38:05.705Z,7.30
2017-10-13T04:40:31.921Z,11.83
2017-10-13T04:42:58.164Z,10.33
2017-10-13T04:45:24.359Z,16.10
2017-10-13T04:47:50.562Z,9.80
2017-10-13T04:50:17.579Z,11.27
2017-10-13T04:52:43.804Z,13.13
2017-10-13T04:55:10.060Z,12.60
2017-10-13T04:57:37.028Z,17.10
2017-10-13T05:00:03.258Z,17.33
2017-10-13T05:02:29.465Z,17.87
2017-10-13T05:04:56.389Z,22.10
2017-10-13T05:07:23.352Z,19.33
2017-10-13T05:09:50.265Z,13.40
2017-10-13T05:12:16.511Z,12.00
2017-10-13T05:14:42.721Z,13.00
2017-10-13T05:17:08.885Z,17.47
2017-10-13T05:19:35.923Z,16.17
2017-10-13T05:22:02.813Z,16.50
2017-10-13T05:24:29.022Z,8.50
2017-10-13T05:26:55.200Z,8.50
2017-10-13T05:29:21.401Z,21.73
2017-10-13T05:31:47.761Z,15.73
2017-10-13T05:34:14.071Z,8.40
2017-10-13T05:36:40.289Z,12.97
2017-10-13T05:39:06.516Z,12.87
2017-10-13T05:41:32.796Z,11.70
2017-10-13T05:43:59.035Z,20.90
2017-10-13T05:46:26.012Z,18.40
2017-10-13T05:48:52.209Z,14.23
2017-10-13T05:51:19.200Z,12.93
2017-10-13T05:53:45.404Z,10.20
2017-10-13T05:56:11.566Z,18.57
2017-10-13T05:58:37.782Z,13.30
2017-10-13T06:01:04.025Z,21.33
2017-10-13T06:03:30.277Z,10.90
2017-10-13T06:05:57.220Z,15.40
2017-10-13T06:08:24.173Z,11.63
2017-10-13T06:10:51.118Z,13.80
2017-10-13T06:13:17.278Z,16.70
2017-10-13T06:15:43.453Z,16.27
2017-10-13T06:18:09.622Z,17.50
2017-10-13T06:20:36.539Z,13.60
2017-10-13T06:23:02.775Z,12.47
2017-10-13T06:25:29.717Z,14.60
2017-10-13T06:27:55.931Z,15.50
2017-10-13T06:30:22.861Z,13.50
2017-10-13T06:32:49.073Z,15.73
2017-10-13T06:35:15.332Z,21.70
2017-10-13T06:37:41.617Z,19.07
2017-10-13T06:40:07.825Z,17.37
2017-10-13T06:42:34.784Z,17.23
2017-10-13T06:45:00.993Z,12.37
2017-10-13T06:47:28.004Z,10.40
2017-10-13T06:49:55.033Z,18.20
2017-10-13T06:52:21.252Z,16.17
2017-10-13T06:54:47.492Z,22.97
2017-10-13T06:57:13.693Z,22.83
2017-10-13T06:59:39.978Z,14.80
2017-10-13T07:02:06.253Z,17.70
2017-10-13T07:04:32.589Z,13.23
2017-10-13T07:06:58.803Z,10.90
2017-10-13T07:09:25.794Z,13.30
2017-10-13T07:11:52.129Z,14.27
2017-10-13T07:14:18.360Z,15.17
2017-10-13T07:16:44.648Z,11.67
2017-10-13T07:19:10.926Z,19.30
2017-10-13T07:21:37.152Z,11.47
2017-10-13T07:24:05.303Z,11.27
2017-10-13T07:26:31.834Z,13.47
2017-10-13T07:28:58.074Z,12.20
2017-10-13T07:31:25.218Z,12.20
2017-10-13T07:33:51.412Z,11.07
2017-10-13T07:36:17.627Z,14.27
2017-10-13T07:38:44.577Z,10.17
2017-10-13T07:41:11.608Z,12.03
2017-10-13T07:43:38.529Z,17.20
2017-10-13T07:46:04.765Z,24.60
2017-10-13T07:48:30.964Z,15.00
2017-10-13T07:50:57.159Z,26.17
2017-10-13T07:53:24.495Z,9.90
2017-10-13T07:55:51.443Z,14.30
2017-10-13T07:58:18.363Z,19.80
2017-10-13T08:00:44.622Z,11.13
2017-10-13T08:03:11.552Z,9.60
2017-10-13T08:05:37.751Z,12.50
2017-10-13T08:08:03.972Z,14.90
2017-10-13T08:10:30.186Z,9.00
2017-10-13T08:12:56.364Z,11.03
2017-10-13T08:15:22.609Z,11.70
2017-10-13T08:17:49.484Z,16.17
2017-10-13T08:20:15.733Z,8.90
2017-10-13T08:22:42.043Z,10.00
2017-10-13T08:25:08.275Z,20.33
2017-10-13T08:27:34.617Z,17.93
2017-10-13T08:30:00.887Z,9.37
2017-10-13T08:32:27.909Z,12.80
2017-10-13T08:34:54.146Z,9.77
2017-10-13T08:37:20.389Z,11.37
2017-10-13T08:39:47.425Z,9.23
2017-10-13T08:42:13.670Z,10.47
2017-10-13T08:44:39.924Z,16.60
2017-10-13T08:47:06.112Z,12.53
2017-10-13T08:49:32.291Z,10.50
2017-10-13T08:51:58.477Z,11.63
2017-10-13T08:54:25.477Z,10.67
2017-10-13T08:56:51.719Z,12.70
2017-10-13T08:59:17.983Z,14.97
2017-10-13T09:01:44.920Z,8.93
2017-10-13T09:04:11.154Z,13.13
2017-10-13T09:06:38.150Z,12.90
2017-10-13T09:09:04.358Z,8.63
2017-10-13T09:11:30.542Z,13.37
2017-10-13T09:13:56.785Z,17.23
2017-10-13T09:16:22.995Z,15.37
2017-10-13T09:18:49.283Z,9.20
2017-10-13T09:21:15.582Z,10.20
2017-10-13T09:23:42.508Z,12.10
2017-10-13T09:26:08.756Z,13.50
2017-10-13T09:28:35.696Z,12.77
2017-10-13T09:31:01.932Z,24.40
2017-10-13T09:33:28.862Z,13.60
2017-10-13T09:35:55.131Z,9.30
2017-10-13T09:38:21.342Z,11.17
2017-10-13T09:40:48.297Z,10.43
2017-10-13T09:43:14.480Z,9.47
2017-10-13T09:45:40.718Z,11.10
2017-10-13T09:48:07.389Z,11.47
2017-10-13T09:50:33.629Z,12.67
2017-10-13T09:52:59.884Z,8.97
2017-10-13T09:55:26.178Z,6.93
2017-10-13T09:57:52.441Z,9.13
2017-10-13T10:00:18.709Z,8.83
2017-10-13T10:02:44.928Z,9.67
2017-10-13T10:05:11.181Z,6.60
2017-10-13T10:07:38.168Z,11.27
2017-10-13T10:10:04.401Z,12.80
2017-10-13T10:12:30.605Z,6.13
2017-10-13T10:14:56.752Z,10.60
2017-10-13T10:17:22.949Z,15.10
2017-10-13T10:19:49.923Z,5.27
2017-10-13T10:22:16.216Z,12.50
2017-10-13T10:24:42.440Z,6.50
2017-10-13T10:27:09.420Z,17.40
2017-10-13T10:29:35.638Z,9.47
2017-10-13T10:32:01.925Z,11.10
2017-10-13T10:34:28.116Z,7.70
2017-10-13T10:36:54.336Z,7.70
2017-10-13T10:39:20.556Z,6.40
2017-10-13T10:41:46.808Z,7.53
2017-10-13T10:44:12.996Z,10.50
2017-10-13T10:46:39.213Z,6.20
2017-10-13T10:49:06.268Z,5.30
2017-10-13T10:51:32.514Z,4.83
2017-10-13T10:53:58.772Z,7.10
2017-10-13T10:56:25.027Z,7.73
2017-10-13T10:58:51.345Z,8.50
2017-10-13T11:01:17.520Z,5.33
2017-10-13T11:03:43.839Z,3.67
2017-10-13T11:06:10.849Z,3.33
2017-10-13T11:08:37.031Z,4.83
2017-10-13T11:11:03.212Z,2.70
2017-10-13T11:13:29.701Z,8.43
2017-10-13T11:15:56.008Z,4.40
2017-10-13T11:18:22.250Z,3.83
2017-10-13T11:20:48.406Z,5.33
2017-10-13T11:23:14.667Z,5.90
2017-10-13T11:25:41.645Z,5.20
2017-10-13T11:28:08.569Z,3.63
2017-10-13T11:30:34.793Z,11.03
2017-10-13T11:33:01.117Z,9.13
2017-10-13T11:35:27.318Z,7.03
2017-10-13T11:37:53.496Z,3.80
2017-10-13T11:40:20.429Z,3.13
2017-10-13T11:42:46.645Z,3.10
2017-10-13T11:45:12.829Z,7.47
2017-10-13T11:47:39.026Z,4.80
2017-10-13T11:50:05.951Z,3.07
2017-10-13T11:52:32.182Z,3.23
2017-10-13T11:54:59.167Z,4.53
2017-10-13T11:57:25.329Z,5.17
2017-10-13T11:59:51.533Z,3.43
2017-10-13T12:02:17.835Z,5.10
2017-10-13T12:04:44.101Z,4.67
2017-10-13T12:07:10.265Z,2.20
2017-10-13T12:09:36.473Z,4.03
2017-10-13T12:12:02.657Z,7.90
2017-10-13T12:14:28.869Z,5.50
2017-10-13T12:16:55.886Z,4.97
2017-10-13T12:19:22.057Z,7.83
2017-10-13T12:21:48.268Z,2.13
2017-10-13T12:24:15.217Z,4.07
2017-10-13T12:26:42.192Z,2.60
2017-10-13T12:29:08.360Z,2.50
2017-10-13T12:31:34.560Z,4.17
2017-10-13T12:34:00.737Z,4.13
2017-10-13T12:36:26.972Z,3.07
2017-10-13T12:38:53.934Z,3.83
2017-10-13T12:41:20.172Z,2.40
2017-10-13T12:43:46.434Z,6.30
2017-10-13T12:46:12.706Z,2.30
2017-10-13T12:48:38.983Z,4.63
2017-10-13T12:51:05.161Z,3.07
2017-10-13T12:53:32.165Z,7.60
2017-10-13T12:55:58.391Z,4.70
2017-10-13T12:58:24.605Z,3.10
2017-10-13T13:00:50.860Z,5.47
2017-10-13T13:03:17.089Z,6.97
2017-10-13T13:05:43.273Z,8.30
2017-10-13T13:08:09.535Z,3.30
2017-10-13T13:10:35.803Z,5.97
2017-10-13T13:13:02.797Z,6.90
2017-10-13T13:15:29.007Z,5.17
2017-10-13T13:17:55.817Z,5.70
2017-10-13T13:20:22.761Z,3.83
2017-10-13T13:22:49.722Z,5.30
2017-10-13T13:25:16.618Z,4.07
2017-10-13T13:27:42.833Z,3.57
2017-10-13T13:30:09.002Z,7.20
2017-10-13T13:32:36.006Z,5.03
2017-10-13T13:35:02.190Z,4.13
2017-10-13T13:37:29.172Z,5.20
2017-10-13T13:39:55.402Z,3.77
2017-10-13T13:42:21.585Z,5.00
2017-10-13T13:44:48.587Z,5.80
2017-10-13T13:47:14.765Z,5.73
2017-10-13T13:49:41.720Z,8.13
2017-10-13T13:52:07.980Z,6.03
2017-10-13T13:54:35.143Z,5.93
2017-10-13T13:57:01.338Z,3.60
2017-10-13T13:59:27.577Z,5.27
2017-10-13T14:01:53.774Z,4.40
2017-10-13T14:04:20.695Z,3.47
2017-10-13T14:06:46.902Z,3.43
2017-10-13T14:09:13.120Z,7.57
2017-10-13T14:11:39.376Z,6.60
2017-10-13T14:14:06.096Z,14.77
2017-10-13T14:16:32.288Z,3.30
2017-10-13T14:18:58.480Z,2.97
2017-10-13T14:21:24.704Z,2.90
2017-10-13T14:23:50.914Z,3.20
2017-10-13T14:26:17.118Z,8.53
2017-10-13T14:28:43.356Z,3.37
2017-10-13T14:31:09.539Z,2.33
2017-10-13T14:33:36.500Z,4.80
2017-10-13T14:36:02.764Z,4.57
2017-10-13T14:38:28.972Z,6.63
2017-10-13T14:40:55.244Z,5.80
2017-10-13T14:43:21.465Z,8.40
2017-10-13T14:45:47.661Z,1.73
2017-10-13T14:48:13.865Z,2.70
2017-10-13T14:50:40.102Z,1.80
2017-10-13T14:53:06.375Z,2.30
2017-10-13T14:55:32.599Z,6.47
2017-10-13T14:57:58.853Z,2.50
2017-10-13T15:00:25.817Z,5.67
2017-10-13T15:02:52.812Z,2.07
2017-10-13T15:05:19.038Z,3.90
2017-10-13T15:07:45.212Z,2.93
2017-10-13T15:10:12.137Z,4.40
2017-10-13T15:12:38.294Z,1.73
2017-10-13T15:15:05.271Z,2.70
2017-10-13T15:17:31.500Z,2.30
2017-10-13T15:19:57.685Z,12.33
2017-10-13T15:22:24.626Z,2.00
2017-10-13T15:24:57.834Z,3.77
2017-10-13T15:27:30.226Z,1.87
2017-10-13T15:30:02.611Z,3.43
2017-10-13T15:32:34.978Z,2.50
2017-10-13T15:35:07.283Z,2.53
2017-10-13T15:37:33.548Z,3.03
2017-10-13T15:40:05.948Z,2.60
2017-10-13T15:42:38.414Z,2.60
2017-10-13T15:45:04.724Z,1.87
2017-10-13T15:47:37.851Z,6.07
2017-10-13T15:50:10.095Z,7.87
2017-10-13T15:52:36.308Z,5.30
2017-10-13T15:55:03.308Z,2.53
2017-10-13T15:57:29.490Z,5.73
2017-10-13T15:59:56.411Z,7.30
2017-10-13T16:02:24.049Z,4.50
2017-10-13T16:04:50.278Z,2.83
2017-10-13T16:07:16.473Z,2.27
2017-10-13T16:09:42.743Z,10.53
2017-10-13T16:12:08.988Z,7.73
2017-10-13T16:14:35.973Z,5.70
2017-10-13T16:17:02.253Z,4.10
2017-10-13T16:19:28.445Z,4.00
2017-10-13T16:21:54.633Z,6.80
2017-10-13T16:24:21.617Z,8.80
2017-10-13T16:26:47.824Z,3.60
2017-10-13T16:29:20.902Z,5.00
2017-10-13T16:31:47.868Z,6.53
2017-10-13T16:34:14.121Z,6.30
2017-10-13T16:36:40.367Z,3.60
2017-10-13T16:39:06.552Z,2.23
2017-10-13T16:41:32.792Z,3.80
2017-10-13T16:43:58.989Z,5.40
2017-10-13T16:46:26.050Z,4.30
2017-10-13T16:48:52.316Z,11.70
2017-10-13T16:51:18.550Z,8.03
2017-10-13T16:53:44.790Z,12.73
2017-10-13T16:56:10.978Z,7.43
2017-10-13T16:58:37.165Z,6.03
2017-10-13T17:01:04.127Z,4.43
2017-10-13T17:03:30.311Z,3.57
2017-10-13T17:05:56.581Z,11.63
2017-10-13T17:08:22.840Z,7.50
2017-10-13T17:10:49.059Z,25.47
2017-10-13T17:13:16.220Z,6.57
2017-10-13T17:15:42.461Z,10.70
2017-10-13T17:18:08.678Z,4.33
2017-10-13T17:20:34.850Z,21.13
2017-10-13T17:23:01.050Z,15.23
2017-10-13T17:25:27.574Z,9.00
2017-10-13T17:27:53.871Z,4.83
2017-10-13T17:30:20.081Z,7.67
2017-10-13T17:32:47.016Z,9.23
2017-10-13T17:35:13.282Z,11.07
2017-10-13T17:37:39.713Z,5.03
2017-10-13T17:40:06.007Z,3.37
2017-10-13T17:42:32.259Z,5.23
2017-10-13T17:44:59.206Z,13.53
2017-10-13T17:47:26.461Z,8.00
2017-10-13T17:49:52.707Z,3.30
2017-10-13T17:52:18.969Z,7.97
2017-10-13T17:54:45.243Z,4.53
2017-10-13T17:57:12.214Z,6.10
2017-10-13T17:59:38.427Z,11.97
2017-10-13T18:02:04.699Z,16.23
2017-10-13T18:04:30.983Z,14.47
2017-10-13T18:06:57.309Z,11.67
2017-10-13T18:09:23.601Z,15.20
2017-10-13T18:11:49.915Z,16.57
2017-10-13T18:14:16.262Z,15.60
2017-10-13T18:16:42.510Z,18.20
2017-10-13T18:19:08.749Z,15.30
2017-10-13T18:21:35.741Z,18.90
2017-10-13T18:24:01.971Z,19.10
2017-10-13T18:26:28.200Z,12.37
2017-10-13T18:28:54.841Z,19.90
2017-10-13T18:31:21.136Z,18.33
2017-10-13T18:33:47.429Z,14.93
2017-10-13T18:36:13.812Z,16.13
2017-10-13T18:38:40.054Z,16.77
2017-10-13T18:41:06.316Z,21.60
2017-10-13T18:43:32.625Z,22.80
2017-10-13T18:46:00.268Z,11.93
2017-10-13T18:48:26.447Z,16.07
2017-10-13T18:50:52.638Z,13.80
2017-10-13T18:53:18.855Z,24.03
2017-10-13T18:55:45.037Z,17.90
2017-10-13T18:58:11.266Z,23.27
2017-10-13T19:00:38.257Z,15.67
2017-10-13T19:03:04.513Z,15.30
2017-10-13T19:05:30.803Z,19.03
2017-10-13T19:07:57.016Z,17.50
2017-10-13T19:10:23.994Z,12.17
2017-10-13T19:12:50.510Z,20.30
2017-10-13T19:15:16.707Z,12.63
2017-10-13T19:17:43.682Z,18.33
2017-10-13T19:20:09.866Z,10.47
2017-10-13T19:22:36.033Z,12.00
2017-10-13T19:25:02.335Z,37.43
2017-10-13T19:27:29.367Z,27.10
2017-10-13T19:29:55.576Z,14.03
2017-10-13T19:32:21.841Z,17.73
2017-10-13T19:34:48.795Z,23.20
2017-10-13T19:37:15.804Z,21.13
2017-10-13T19:39:42.678Z,28.40
2017-10-13T19:42:09.018Z,25.50
2017-10-13T19:44:35.994Z,16.10
2017-10-13T19:47:02.189Z,15.87
2017-10-13T19:49:29.143Z,9.07
2017-10-13T19:51:56.093Z,12.17
2017-10-13T19:54:22.329Z,20.43
2017-10-13T19:56:48.606Z,13.00
2017-10-13T19:59:14.963Z,11.80
2017-10-13T20:01:41.984Z,8.87
2017-10-13T20:04:08.237Z,12.40
2017-10-13T20:06:35.813Z,26.50
2017-10-13T20:09:02.105Z,10.80
2017-10-13T20:11:28.310Z,17.27
2017-10-13T20:13:54.589Z,12.73
2017-10-13T20:16:21.556Z,13.50
2017-10-13T20:18:47.803Z,18.03
2017-10-13T20:21:14.035Z,11.50
2017-10-13T20:23:40.283Z,11.70
2017-10-13T20:26:06.512Z,11.57
2017-10-13T20:28:32.732Z,14.70
2017-10-13T20:30:58.955Z,12.30
2017-10-13T20:33:25.380Z,10.70
2017-10-13T20:35:51.597Z,26.63
2017-10-13T20:38:17.789Z,18.30
2017-10-13T20:40:44.024Z,9.70
2017-10-13T20:43:10.942Z,10.27
2017-10-13T20:45:37.104Z,17.03
2017-10-13T20:48:04.045Z,21.70
2017-10-13T20:50:30.973Z,12.30
2017-10-13T20:52:57.152Z,18.40
2017-10-13T20:55:23.355Z,15.10
2017-10-13T20:57:50.275Z,17.77
2017-10-13T21:00:16.488Z,19.47
2017-10-13T21:02:42.784Z,14.13
2017-10-13T21:05:09.007Z,16.13
2017-10-13T21:07:35.185Z,16.73
2017-10-13T21:10:01.444Z,16.40
2017-10-13T21:12:27.597Z,10.17
2017-10-13T21:14:53.815Z,23.63
2017-10-13T21:17:20.073Z,16.03
2017-10-13T21:19:46.276Z,21.10
2017-10-13T21:22:12.514Z,20.77
2017-10-13T21:24:38.779Z,13.83
2017-10-13T21:27:04.960Z,16.03
2017-10-13T21:29:31.138Z,20.83
2017-10-13T21:31:57.425Z,13.60
2017-10-13T21:34:23.611Z,20.17
2017-10-13T21:36:50.534Z,16.77
2017-10-13T21:39:16.759Z,22.40
2017-10-13T21:41:42.979Z,16.87
2017-10-13T21:44:09.197Z,18.97
2017-10-13T21:46:35.476Z,17.33
2017-10-13T21:49:02.427Z,20.17
2017-10-13T21:51:29.435Z,20.83
2017-10-13T21:53:55.731Z,20.23
2017-10-13T21:56:21.992Z,13.87
2017-10-13T21:58:48.191Z,17.00
2017-10-13T22:01:14.365Z,21.70
2017-10-13T22:03:40.619Z,17.70
2017-10-13T22:06:06.778Z,14.77
2017-10-13T22:08:32.992Z,18.23
2017-10-13T22:10:59.155Z,18.40
2017-10-13T22:13:25.393Z,19.57
2017-10-13T22:15:51.633Z,13.10
2017-10-13T22:18:17.794Z,11.83
2017-10-13T22:20:44.803Z,8.07
2017-10-13T22:23:11.069Z,17.57
2017-10-13T22:25:37.268Z,10.77
2017-10-13T22:28:03.446Z,14.27
2017-10-13T22:30:29.716Z,11.40
2017-10-13T22:32:56.689Z,12.57
2017-10-13T22:35:23.658Z,10.57
2017-10-13T22:37:49.889Z,20.07
2017-10-13T22:40:16.135Z,12.33
2017-10-13T22:42:42.310Z,23.93
2017-10-13T22:45:09.259Z,15.90
2017-10-13T22:47:35.472Z,17.43
2017-10-13T22:50:02.441Z,19.50
2017-10-13T22:52:28.767Z,15.43
2017-10-13T22:54:55.772Z,20.30
2017-10-13T22:57:22.025Z,22.57
2017-10-13T22:59:49.016Z,17.70
2017-10-13T23:02:15.185Z,15.53
2017-10-13T23:04:41.379Z,16.47
2017-10-13T23:07:07.562Z,12.80
2017-10-13T23:09:34.535Z,13.37
2017-10-13T23:12:00.721Z,16.43
2017-10-13T23:14:27.007Z,17.43
2017-10-13T23:16:53.260Z,19.00
2017-10-13T23:19:19.524Z,12.20
2017-10-13T23:21:46.841Z,11.67
2017-10-13T23:24:12.985Z,17.97
2017-10-13T23:26:39.224Z,12.33
2017-10-13T23:29:06.189Z,15.47
2017-10-13T23:31:33.132Z,10.10
2017-10-13T23:34:00.102Z,20.10
2017-10-13T23:36:26.377Z,12.93
2017-10-13T23:38:52.547Z,18.80
2017-10-13T23:41:18.721Z,23.27
2017-10-13T23:43:44.909Z,8.80
2017-10-13T23:46:11.123Z,13.97
2017-10-13T23:48:38.033Z,11.30
2017-10-13T23:51:04.208Z,15.70
2017-10-13T23:53:30.384Z,15.60
2017-10-13T23:55:56.608Z,22.43
2017-10-13T23:58:22.827Z,14.37
